Time;durP1;ratioP1;P1;durP2;ratioP2;P2;SDS_P1;SDS_P2;PMS_P1;PMS_P2;Temp;Humidity;BMP_temperature;BMP_pressure;BME280_temperature;BME280_humidity;BME280_pressure;Samples;Min_cycle;Max_cycle;Signal;HPM_P1;HPM_P2
2021/05/10 00:01:34;;;;;;;7.97;5.77;;;7.60;99.90;;;;;;4208158;28;20032;-58
2021/05/10 00:03:35;;;;;;;10.40;6.27;;;7.50;99.90;;;;;;4207948;28;20522;-59
2021/05/10 00:05:37;;;;;;;7.80;5.23;;;7.40;99.90;;;;;;4207934;28;20028;-58
2021/05/10 00:07:38;;;;;;;11.00;6.43;;;7.40;99.90;;;;;;4207580;28;20093;-60
2021/05/10 00:09:40;;;;;;;8.10;5.53;;;7.40;99.90;;;;;;4207673;28;20043;-59
2021/05/10 00:11:41;;;;;;;9.70;5.80;;;7.40;99.90;;;;;;4207156;28;20470;-62
2021/05/10 00:13:48;;;;;;;12.30;5.67;;;7.30;99.90;;;;;;4207163;28;20028;-54
2021/05/10 00:15:50;;;;;;;9.33;5.43;;;7.30;99.90;;;;;;4207329;28;20436;-59
2021/05/10 00:17:51;;;;;;;8.47;5.23;;;7.30;99.90;;;;;;4207495;28;20391;-61
2021/05/10 00:19:53;;;;;;;8.83;5.13;;;7.30;99.90;;;;;;4207562;28;20044;-58
2021/05/10 00:21:54;;;;;;;6.00;4.47;;;7.30;99.90;;;;;;4207579;28;20625;-60
2021/05/10 00:23:55;;;;;;;7.87;5.07;;;7.30;99.90;;;;;;4207843;28;20105;-61
2021/05/10 00:25:56;;;;;;;7.93;4.37;;;7.30;99.90;;;;;;4207278;28;20024;-58
2021/05/10 00:27:57;;;;;;;9.00;4.93;;;7.30;99.90;;;;;;4207398;28;20730;-57
2021/05/10 00:29:59;;;;;;;10.53;5.27;;;7.20;99.90;;;;;;4206936;28;20028;-60
2021/05/10 00:32:01;;;;;;;7.30;4.40;;;7.20;99.90;;;;;;4206006;28;20020;-59
2021/05/10 00:34:02;;;;;;;11.83;5.50;;;7.20;99.90;;;;;;4207434;28;20061;-57
2021/05/10 00:36:03;;;;;;;7.60;4.80;;;7.10;99.90;;;;;;4206979;28;20032;-55
2021/05/10 00:38:04;;;;;;;8.93;4.83;;;7.10;99.90;;;;;;4206971;28;20036;-59
2021/05/10 00:40:07;;;;;;;8.63;4.90;;;7.00;99.90;;;;;;4207600;28;20028;-59
2021/05/10 00:42:08;;;;;;;10.87;5.10;;;7.00;99.90;;;;;;4207108;28;20510;-62
2021/05/10 00:44:10;;;;;;;10.87;5.13;;;6.90;99.90;;;;;;4207328;28;20089;-54
2021/05/10 00:46:11;;;;;;;9.50;4.77;;;6.90;99.90;;;;;;4206892;28;20073;-60
2021/05/10 00:48:12;;;;;;;7.60;5.00;;;6.90;99.90;;;;;;4207279;28;20097;-54
2021/05/10 00:50:14;;;;;;;14.97;4.83;;;6.90;99.90;;;;;;4206485;28;20155;-59
2021/05/10 00:52:15;;;;;;;7.77;5.23;;;6.90;99.90;;;;;;4206766;28;20564;-59
2021/05/10 00:54:16;;;;;;;8.73;5.10;;;6.90;99.90;;;;;;4206774;28;20073;-58
2021/05/10 00:56:17;;;;;;;7.47;5.00;;;6.90;99.90;;;;;;4206766;28;20032;-58
2021/05/10 00:58:18;;;;;;;7.93;4.67;;;6.90;99.90;;;;;;4207393;28;20103;-57
2021/05/10 01:00:21;;;;;;;8.93;5.40;;;6.80;99.90;;;;;;4206506;28;20571;-51
2021/05/10 01:02:23;;;;;;;10.00;4.83;;;6.80;99.90;;;;;;4205831;28;20577;-55
2021/05/10 01:04:25;;;;;;;10.63;5.70;;;6.70;99.90;;;;;;4206768;28;20032;-60
2021/05/10 01:06:26;;;;;;;9.97;5.30;;;6.70;99.90;;;;;;4206656;28;20051;-59
2021/05/10 01:08:27;;;;;;;10.07;5.47;;;6.70;99.90;;;;;;4206618;28;20105;-59
2021/05/10 01:10:28;;;;;;;7.37;4.60;;;6.70;99.90;;;;;;4206633;28;20814;-59
2021/05/10 01:12:29;;;;;;;9.60;5.10;;;6.60;99.90;;;;;;4206392;28;20028;-57
2021/05/10 01:14:32;;;;;;;8.40;5.13;;;6.60;99.90;;;;;;4206517;28;20085;-53
2021/05/10 01:16:33;;;;;;;9.30;4.97;;;6.60;99.90;;;;;;4206806;28;20093;-60
2021/05/10 01:18:35;;;;;;;7.63;5.27;;;6.60;99.90;;;;;;4206591;28;20096;-57
2021/05/10 01:20:37;;;;;;;8.23;5.07;;;6.60;99.90;;;;;;4206893;28;20028;-55
2021/05/10 01:22:53;;;;;;;10.27;5.53;;;6.60;99.90;;;;;;4206024;28;20466;-59
2021/05/10 01:24:54;;;;;;;11.40;5.17;;;6.50;99.90;;;;;;4205419;28;20036;-66
2021/05/10 01:26:55;;;;;;;11.60;6.03;;;6.50;99.90;;;;;;4204530;28;20036;-59
2021/05/10 01:28:56;;;;;;;11.27;5.40;;;6.50;99.90;;;;;;4206313;28;20033;-57
2021/05/10 01:30:57;;;;;;;10.73;5.50;;;6.40;99.90;;;;;;4206276;28;20093;-59
2021/05/10 01:33:00;;;;;;;12.83;5.50;;;6.40;99.90;;;;;;4206317;28;20029;-60
2021/05/10 01:35:03;;;;;;;11.80;5.53;;;6.40;99.90;;;;;;4206002;28;20129;-58
2021/05/10 01:37:04;;;;;;;11.73;5.57;;;6.40;99.90;;;;;;4206475;28;20036;-57
2021/05/10 01:39:06;;;;;;;10.50;4.93;;;6.40;99.90;;;;;;4206152;28;20032;-59
2021/05/10 01:41:07;;;;;;;11.37;5.73;;;6.30;99.90;;;;;;4205959;28;20093;-58
2021/05/10 01:43:08;;;;;;;10.30;5.53;;;6.30;99.90;;;;;;4205990;28;20028;-59
2021/05/10 01:45:12;;;;;;;8.87;5.40;;;6.30;99.90;;;;;;4206340;28;20016;-60
2021/05/10 01:47:13;;;;;;;13.20;6.27;;;6.30;99.90;;;;;;4206352;28;20630;-58
2021/05/10 01:49:14;;;;;;;10.27;5.80;;;6.30;99.90;;;;;;4205902;28;20024;-60
2021/05/10 01:51:15;;;;;;;16.50;6.73;;;6.20;99.90;;;;;;4205979;28;20052;-61
2021/05/10 01:53:16;;;;;;;16.70;7.27;;;6.20;99.90;;;;;;4206206;28;20285;-60
2021/05/10 01:55:18;;;;;;;14.47;7.23;;;6.10;99.90;;;;;;4206175;28;20028;-57
2021/05/10 01:57:21;;;;;;;11.53;6.33;;;6.10;99.90;;;;;;4206049;28;20089;-57
2021/05/10 01:59:22;;;;;;;9.57;6.40;;;6.10;99.90;;;;;;4206230;28;20052;-61
2021/05/10 02:01:23;;;;;;;15.73;7.43;;;6.00;99.90;;;;;;4205285;28;20082;-63
2021/05/10 02:03:24;;;;;;;10.40;6.23;;;6.00;99.90;;;;;;4206076;28;20044;-59
2021/05/10 02:05:25;;;;;;;11.43;6.37;;;6.10;99.90;;;;;;4205642;28;20088;-59
2021/05/10 02:07:27;;;;;;;12.90;6.50;;;6.10;99.90;;;;;;4205906;28;20094;-62
2021/05/10 02:09:28;;;;;;;11.63;6.23;;;6.10;99.90;;;;;;4205409;28;20044;-58
2021/05/10 02:11:29;;;;;;;14.53;6.17;;;6.10;99.90;;;;;;4205903;28;20052;-57
2021/05/10 02:13:30;;;;;;;12.57;6.43;;;6.10;99.90;;;;;;4205467;28;20410;-64
2021/05/10 02:15:44;;;;;;;16.77;6.23;;;6.10;99.90;;;;;;4206010;28;20085;-55
2021/05/10 02:17:45;;;;;;;17.10;6.97;;;6.10;99.90;;;;;;4203434;28;20044;-57
2021/05/10 02:19:47;;;;;;;9.83;6.13;;;6.10;99.90;;;;;;4205891;28;20044;-55
2021/05/10 02:21:48;;;;;;;9.70;5.33;;;6.10;99.90;;;;;;4204964;28;20430;-58
2021/05/10 02:23:49;;;;;;;10.27;5.60;;;6.10;99.90;;;;;;4205382;28;20268;-56
2021/05/10 02:25:56;;;;;;;13.30;5.83;;;6.00;99.90;;;;;;4205858;28;20028;-58
2021/05/10 02:27:58;;;;;;;8.03;5.70;;;6.00;99.90;;;;;;4205841;28;20093;-56
2021/05/10 02:29:59;;;;;;;10.03;5.67;;;6.00;99.90;;;;;;4205066;28;20089;-57
2021/05/10 02:32:00;;;;;;;8.20;5.47;;;5.90;99.90;;;;;;4205763;28;20079;-59
2021/05/10 02:34:02;;;;;;;12.43;5.93;;;5.90;99.90;;;;;;4205636;28;20104;-58
2021/05/10 02:36:03;;;;;;;9.33;5.63;;;5.80;99.90;;;;;;4204879;28;20044;-61
2021/05/10 02:38:05;;;;;;;10.03;5.93;;;5.70;99.90;;;;;;4205966;28;20028;-57
2021/05/10 02:40:08;;;;;;;8.03;6.10;;;5.60;99.90;;;;;;4204941;28;20434;-54
2021/05/10 02:42:09;;;;;;;11.10;6.83;;;5.60;99.90;;;;;;4205292;28;20712;-56
2021/05/10 02:44:10;;;;;;;14.33;7.10;;;5.50;99.90;;;;;;4205633;28;20024;-59
2021/05/10 02:46:11;;;;;;;12.43;7.63;;;5.40;99.90;;;;;;4205193;28;20613;-59
2021/05/10 02:48:13;;;;;;;13.90;7.87;;;5.40;99.90;;;;;;4205102;28;20268;-59
2021/05/10 02:50:17;;;;;;;12.70;7.70;;;5.40;99.90;;;;;;4205381;28;20253;-59
2021/05/10 02:52:19;;;;;;;12.83;8.00;;;5.30;99.90;;;;;;4205014;28;20297;-58
2021/05/10 02:54:20;;;;;;;10.27;7.20;;;5.30;99.90;;;;;;4205553;28;20349;-59
2021/05/10 02:56:21;;;;;;;10.87;7.57;;;5.20;99.90;;;;;;4208154;28;20269;-57
2021/05/10 02:58:22;;;;;;;12.17;7.23;;;5.20;99.90;;;;;;4209193;28;20813;-59
2021/05/10 03:00:25;;;;;;;14.47;7.77;;;5.20;99.90;;;;;;4209033;28;20626;-61
2021/05/10 03:02:26;;;;;;;13.90;8.23;;;5.30;99.90;;;;;;4208545;28;20306;-54
2021/05/10 03:04:27;;;;;;;18.90;9.50;;;5.30;99.90;;;;;;4208659;28;20322;-56
2021/05/10 03:06:28;;;;;;;14.73;8.33;;;5.50;99.90;;;;;;4208699;28;20285;-58
2021/05/10 03:08:29;;;;;;;13.47;8.63;;;5.60;99.90;;;;;;4208905;28;20265;-55
2021/05/10 03:10:31;;;;;;;14.07;9.63;;;5.90;99.90;;;;;;4208331;28;20264;-60
2021/05/10 03:12:32;;;;;;;20.50;10.80;;;6.10;99.90;;;;;;4208317;28;20310;-56
2021/05/10 03:14:34;;;;;;;15.37;8.43;;;6.30;99.90;;;;;;4208316;28;20341;-61
2021/05/10 03:16:35;;;;;;;16.60;10.00;;;6.50;99.90;;;;;;4208761;28;20882;-62
2021/05/10 03:18:36;;;;;;;19.73;10.83;;;6.60;99.90;;;;;;4208195;28;20264;-59
2021/05/10 03:20:37;;;;;;;20.60;11.47;;;6.90;99.90;;;;;;4208367;28;20310;-56
2021/05/10 03:22:39;;;;;;;21.23;12.57;;;7.10;99.90;;;;;;4208069;28;20040;-59
2021/05/10 03:24:40;;;;;;;22.07;13.43;;;7.30;99.90;;;;;;4208562;28;20078;-59
2021/05/10 03:26:42;;;;;;;15.33;12.00;;;7.60;99.90;;;;;;4208787;28;20260;-57
2021/05/10 03:28:43;;;;;;;16.23;12.37;;;7.90;99.90;;;;;;4208923;28;20358;-67
2021/05/10 03:30:44;;;;;;;21.43;11.60;;;8.20;99.90;;;;;;4207611;28;20040;-60
2021/05/10 03:32:46;;;;;;;23.17;11.50;;;8.60;99.90;;;;;;4208563;28;20044;-60
2021/05/10 03:34:47;;;;;;;25.13;11.07;;;8.80;99.90;;;;;;4208122;28;20050;-60
2021/05/10 03:36:48;;;;;;;18.37;10.47;;;8.90;99.90;;;;;;4208202;28;20136;-63
2021/05/10 03:38:50;;;;;;;17.57;9.93;;;9.10;99.90;;;;;;4208493;28;20498;-60
2021/05/10 03:40:51;;;;;;;14.67;7.07;;;9.20;99.90;;;;;;4207661;28;20051;-57
2021/05/10 03:42:53;;;;;;;17.13;8.67;;;9.30;99.90;;;;;;4207647;28;20097;-55
2021/05/10 03:44:54;;;;;;;15.10;8.27;;;9.30;99.90;;;;;;4207446;28;20031;-56
2021/05/10 03:46:55;;;;;;;16.63;8.60;;;9.30;99.90;;;;;;4208253;28;20476;-54
2021/05/10 03:48:56;;;;;;;25.57;9.77;;;9.70;99.90;;;;;;4207262;28;20557;-59
2021/05/10 03:50:57;;;;;;;23.40;7.83;;;10.20;99.90;;;;;;4207746;28;20776;-60
2021/05/10 03:52:59;;;;;;;17.40;8.70;;;10.70;99.90;;;;;;4208202;28;20873;-60
2021/05/10 03:55:00;;;;;;;13.33;7.23;;;11.10;99.90;;;;;;4207760;28;20093;-59
2021/05/10 03:57:01;;;;;;;13.20;7.63;;;11.60;99.90;;;;;;4208350;28;20089;-59
2021/05/10 03:59:02;;;;;;;15.10;7.77;;;12.10;99.90;;;;;;4207615;28;20036;-62
2021/05/10 04:01:04;;;;;;;15.13;8.00;;;12.60;99.90;;;;;;4207288;28;20089;-59
2021/05/10 04:03:08;;;;;;;14.13;6.97;;;13.30;99.90;;;;;;4206335;28;20446;-59
2021/05/10 04:14:01;;;;;;;16.30;6.37;;;15.70;92.10;;;;;;4207359;28;20073;-59
2021/05/10 04:16:06;;;;;;;11.80;6.90;;;16.00;89.60;;;;;;4207315;28;20322;-59
2021/05/10 04:18:07;;;;;;;14.37;6.80;;;16.00;87.90;;;;;;4207335;28;20089;-58
2021/05/10 04:20:09;;;;;;;11.27;6.30;;;16.50;86.60;;;;;;4207129;28;20528;-60
2021/05/10 04:22:10;;;;;;;13.17;6.40;;;17.10;83.20;;;;;;4206659;28;20052;-57
2021/05/10 04:24:11;;;;;;;13.73;6.80;;;17.40;80.20;;;;;;4206806;28;20046;-58
2021/05/10 04:26:12;;;;;;;14.55;6.20;;;17.90;77.50;;;;;;4202077;28;20065;-56
2021/05/10 04:28:14;;;;;;;14.63;7.00;;;18.00;75.20;;;;;;4201192;28;20032;-58
2021/05/10 04:30:16;;;;;;;16.55;6.85;;;17.90;74.00;;;;;;4201403;28;20057;-58
2021/05/10 04:32:17;;;;;;;13.65;6.68;;;17.70;73.60;;;;;;4201232;28;20104;-58
2021/05/10 04:34:18;;;;;;;11.35;6.45;;;17.00;73.70;;;;;;4206288;28;20048;-59
2021/05/10 04:36:19;;;;;;;22.08;7.35;;;16.50;75.20;;;;;;4205939;28;20895;-62
2021/05/10 04:38:21;;;;;;;15.70;6.57;;;16.20;76.30;;;;;;4206424;28;20036;-57
2021/05/10 04:40:22;;;;;;;14.35;6.43;;;15.60;77.50;;;;;;4206755;28;20127;-60
2021/05/10 04:42:23;;;;;;;13.73;6.55;;;15.40;78.40;;;;;;4205199;28;20028;-59
2021/05/10 04:44:24;;;;;;;13.50;6.03;;;15.20;78.40;;;;;;4205982;28;20297;-60
2021/05/10 04:46:25;;;;;;;17.08;6.30;;;15.00;79.60;;;;;;4206847;28;20121;-58
2021/05/10 04:48:27;;;;;;;7.50;5.22;;;15.20;80.00;;;;;;4206614;28;20425;-59
2021/05/10 04:50:28;;;;;;;9.15;5.47;;;15.50;79.10;;;;;;4206219;28;20085;-59
2021/05/10 04:52:30;;;;;;;11.90;6.45;;;15.60;78.10;;;;;;4205927;28;20039;-59
2021/05/10 04:54:31;;;;;;;10.80;5.00;;;15.80;78.20;;;;;;4205348;28;20444;-59
2021/05/10 04:56:32;;;;;;;8.32;5.80;;;16.10;77.20;;;;;;4206486;28;20036;-60
2021/05/10 04:58:33;;;;;;;11.45;5.55;;;16.10;76.10;;;;;;4206453;28;20457;-61
2021/05/10 05:00:35;;;;;;;10.93;5.40;;;16.60;75.00;;;;;;4206506;28;20044;-67
2021/05/10 05:02:36;;;;;;;10.10;6.07;;;16.30;74.00;;;;;;4205411;28;20070;-70
2021/05/10 05:04:37;;;;;;;10.85;6.78;;;16.00;73.80;;;;;;4206419;28;20031;-65
2021/05/10 05:06:38;;;;;;;11.23;6.95;;;15.70;74.80;;;;;;4206302;28;20040;-60
2021/05/10 05:08:39;;;;;;;15.77;7.55;;;15.50;75.50;;;;;;4206349;28;20467;-66
2021/05/10 05:10:40;;;;;;;10.13;5.38;;;15.40;75.80;;;;;;4205959;28;20085;-59
2021/05/10 05:12:41;;;;;;;7.30;5.30;;;15.20;76.50;;;;;;4205892;28;20601;-61
2021/05/10 05:14:43;;;;;;;10.77;6.27;;;15.10;76.50;;;;;;4206162;28;20570;-61
2021/05/10 05:16:44;;;;;;;7.07;4.83;;;14.90;77.50;;;;;;4204400;28;20070;-67
2021/05/10 05:18:45;;;;;;;6.57;4.67;;;14.80;77.50;;;;;;4205928;28;20560;-60
2021/05/10 05:20:46;;;;;;;11.50;5.27;;;14.80;77.80;;;;;;4205561;28;20020;-60
2021/05/10 05:22:47;;;;;;;10.17;5.40;;;14.60;78.60;;;;;;4206329;28;20040;-67
2021/05/10 05:24:48;;;;;;;8.87;5.30;;;14.50;79.30;;;;;;4205553;28;20016;-59
2021/05/10 05:26:49;;;;;;;11.27;5.77;;;14.00;81.20;;;;;;4205225;28;20074;-60
2021/05/10 05:28:50;;;;;;;8.77;5.07;;;14.10;82.70;;;;;;4206051;28;20434;-60
2021/05/10 05:30:52;;;;;;;7.63;4.27;;;14.30;81.90;;;;;;4206587;28;20078;-60
2021/05/10 05:32:53;;;;;;;7.17;5.27;;;14.10;82.70;;;;;;4205986;28;20097;-57
2021/05/10 05:34:54;;;;;;;8.50;5.00;;;14.60;81.90;;;;;;4205450;28;20101;-60
2021/05/10 05:36:55;;;;;;;15.97;5.53;;;14.50;81.60;;;;;;4206177;28;20815;-59
2021/05/10 05:38:56;;;;;;;7.70;4.67;;;15.10;80.70;;;;;;4206145;28;20113;-67
2021/05/10 05:40:57;;;;;;;5.93;4.90;;;15.30;79.40;;;;;;4205821;28;20427;-60
2021/05/10 05:42:58;;;;;;;7.00;4.90;;;15.00;79.50;;;;;;4205293;28;20036;-61
2021/05/10 05:44:59;;;;;;;9.13;5.23;;;14.70;81.30;;;;;;4205190;28;20024;-62
2021/05/10 05:47:03;;;;;;;9.53;5.47;;;14.60;82.10;;;;;;4205916;28;20098;-69
2021/05/10 05:49:04;;;;;;;7.37;4.43;;;14.60;82.70;;;;;;4205814;28;20020;-61
2021/05/10 05:51:10;;;;;;;10.20;5.10;;;14.50;84.20;;;;;;4205833;28;20032;-61
2021/05/10 05:53:12;;;;;;;5.93;4.13;;;14.50;84.70;;;;;;4204995;28;20032;-59
2021/05/10 05:55:14;;;;;;;9.47;4.37;;;14.40;84.70;;;;;;4205613;28;20471;-60
2021/05/10 05:57:15;;;;;;;7.30;4.40;;;14.20;84.90;;;;;;4205445;28;20526;-60
2021/05/10 05:59:16;;;;;;;8.57;4.57;;;14.20;85.00;;;;;;4205714;28;20046;-70
2021/05/10 06:01:18;;;;;;;7.27;4.10;;;14.10;84.80;;;;;;4205559;28;20082;-61
2021/05/10 06:03:22;;;;;;;5.50;4.00;;;14.10;85.10;;;;;;4203990;28;20032;-61
2021/05/10 06:05:23;;;;;;;7.37;4.03;;;14.00;85.30;;;;;;4205423;28;20858;-63
2021/05/10 06:07:24;;;;;;;5.63;3.70;;;13.70;86.30;;;;;;4203927;28;20047;-60
2021/05/10 06:09:26;;;;;;;10.03;4.40;;;13.60;87.30;;;;;;4204976;28;20036;-59
2021/05/10 06:11:27;;;;;;;7.47;4.27;;;13.80;87.20;;;;;;4204757;28;20101;-59
2021/05/10 06:13:29;;;;;;;8.07;4.53;;;13.80;87.80;;;;;;4205442;28;20078;-59
2021/05/10 06:15:30;;;;;;;9.80;5.10;;;13.80;87.60;;;;;;4205608;28;20035;-58
2021/05/10 06:17:31;;;;;;;10.03;4.90;;;13.90;87.90;;;;;;4205227;28;20078;-59
2021/05/10 06:19:33;;;;;;;12.40;4.47;;;13.90;88.70;;;;;;4205716;28;20484;-60
2021/05/10 06:21:35;;;;;;;9.57;4.90;;;13.90;88.90;;;;;;4205110;28;20048;-60
2021/05/10 06:23:39;;;;;;;5.80;4.17;;;14.10;89.40;;;;;;4204767;28;20096;-59
2021/05/10 06:25:40;;;;;;;6.90;4.30;;;14.30;88.80;;;;;;4204291;28;20028;-61
2021/05/10 06:27:42;;;;;;;5.80;4.30;;;14.40;88.10;;;;;;4205732;28;20087;-61
2021/05/10 06:29:43;;;;;;;8.40;4.37;;;14.80;87.10;;;;;;4202935;28;20381;-66
2021/05/10 06:31:44;;;;;;;7.80;4.27;;;14.70;87.20;;;;;;4204936;28;20040;-60
2021/05/10 06:33:46;;;;;;;10.03;3.87;;;14.80;87.00;;;;;;4205365;28;20039;-59
2021/05/10 06:35:48;;;;;;;7.43;3.90;;;15.00;86.80;;;;;;4204865;28;20097;-60
2021/05/10 06:37:49;;;;;;;7.17;3.63;;;14.90;86.80;;;;;;4204979;28;20043;-59
2021/05/10 06:39:50;;;;;;;8.07;3.60;;;14.80;87.50;;;;;;4205214;28;20101;-60
2021/05/10 06:41:51;;;;;;;6.70;3.50;;;14.70;87.90;;;;;;4205138;28;20094;-61
2021/05/10 06:43:53;;;;;;;4.47;3.43;;;14.80;88.20;;;;;;4204800;28;20057;-60
2021/05/10 06:45:54;;;;;;;6.67;3.60;;;14.80;87.90;;;;;;4204653;28;20032;-60
2021/05/10 06:47:55;;;;;;;9.07;3.60;;;15.00;88.00;;;;;;4205353;28;20361;-56
2021/05/10 06:49:56;;;;;;;6.77;3.53;;;15.10;87.00;;;;;;4204691;28;20073;-60
2021/05/10 06:51:57;;;;;;;13.10;4.10;;;15.10;86.20;;;;;;4205021;28;20089;-60
2021/05/10 06:53:58;;;;;;;4.60;3.03;;;15.10;86.70;;;;;;4205221;28;20052;-60
2021/05/10 06:55:59;;;;;;;7.93;3.30;;;15.30;85.80;;;;;;4204841;28;20039;-60
2021/05/10 06:58:08;;;;;;;3.90;2.70;;;15.60;85.50;;;;;;4204467;28;20095;-60
2021/05/10 07:00:10;;;;;;;5.47;3.17;;;15.60;82.40;;;;;;4204734;28;20960;-58
2021/05/10 07:02:12;;;;;;;6.13;2.83;;;15.60;83.10;;;;;;4204597;28;20093;-59
2021/05/10 07:04:13;;;;;;;2.47;2.13;;;15.60;82.90;;;;;;4204755;28;20418;-60
2021/05/10 07:06:14;;;;;;;5.53;2.67;;;15.80;82.50;;;;;;4205007;28;20473;-61
2021/05/10 07:08:17;;;;;;;4.23;2.50;;;15.90;81.80;;;;;;4204800;28;20101;-59
2021/05/10 07:10:18;;;;;;;4.03;2.57;;;16.00;82.30;;;;;;4204475;28;21162;-60
2021/05/10 07:12:20;;;;;;;3.10;2.30;;;16.00;81.60;;;;;;4204426;28;20085;-61
2021/05/10 07:14:21;;;;;;;5.17;3.00;;;16.10;81.30;;;;;;4204741;28;20032;-60
2021/05/10 07:16:22;;;;;;;6.13;2.40;;;16.00;81.60;;;;;;4204551;28;20372;-59
2021/05/10 07:18:24;;;;;;;3.67;2.77;;;16.20;81.40;;;;;;4205191;28;20089;-59
2021/05/10 07:20:25;;;;;;;5.67;2.20;;;16.20;81.90;;;;;;4204792;28;20020;-59
2021/05/10 07:22:26;;;;;;;7.00;2.20;;;16.30;80.70;;;;;;4204678;28;20529;-66
2021/05/10 07:24:27;;;;;;;3.03;1.90;;;16.30;80.00;;;;;;4205054;28;20043;-60
2021/05/10 07:26:28;;;;;;;4.23;2.50;;;16.40;79.70;;;;;;4204677;28;20024;-60
2021/05/10 07:28:29;;;;;;;8.33;2.20;;;16.60;79.00;;;;;;4205102;28;20090;-58
2021/05/10 07:30:30;;;;;;;7.75;2.58;;;16.90;77.20;;;;;;4204391;28;20086;-59
2021/05/10 07:32:31;;;;;;;4.95;1.75;;;16.90;75.60;;;;;;4204211;28;20185;-61
2021/05/10 07:34:33;;;;;;;4.13;2.20;;;17.00;74.30;;;;;;4204162;28;20065;-60
2021/05/10 07:36:34;;;;;;;6.80;2.47;;;17.10;74.50;;;;;;4204993;28;20086;-60
2021/05/10 07:38:35;;;;;;;5.28;2.03;;;17.30;74.00;;;;;;4204013;28;20173;-61
2021/05/10 07:40:38;;;;;;;4.75;1.98;;;17.30;72.90;;;;;;4204731;28;20020;-58
2021/05/10 07:42:39;;;;;;;2.70;1.92;;;17.40;73.40;;;;;;4207893;28;20043;-60
2021/05/10 07:44:40;;;;;;;7.97;2.20;;;17.50;73.10;;;;;;4207773;28;20638;-59
2021/05/10 07:46:41;;;;;;;5.13;2.10;;;17.50;72.90;;;;;;4207704;28;20061;-62
2021/05/10 07:48:43;;;;;;;9.60;1.88;;;17.60;72.70;;;;;;4207288;28;20032;-60
2021/05/10 07:50:44;;;;;;;5.07;1.73;;;17.90;70.90;;;;;;4206532;28;20078;-60
2021/05/10 07:52:45;;;;;;;4.65;1.67;;;18.10;68.80;;;;;;4207406;28;20105;-60
2021/05/10 07:54:46;;;;;;;2.60;1.40;;;18.20;66.60;;;;;;4207698;28;20048;-61
2021/05/10 07:56:48;;;;;;;2.05;1.50;;;18.30;65.70;;;;;;4206935;28;20036;-60
2021/05/10 07:58:49;;;;;;;4.40;1.52;;;18.40;65.00;;;;;;4208023;28;20024;-60
2021/05/10 08:00:55;;;;;;;2.78;1.15;;;18.30;64.40;;;;;;4207299;28;20810;-60
2021/05/10 08:03:04;;;;;;;1.38;1.00;;;18.30;63.60;;;;;;4206884;28;20069;-59
2021/05/10 08:05:06;;;;;;;4.30;1.30;;;18.20;63.80;;;;;;4207076;28;20487;-60
2021/05/10 08:07:11;;;;;;;4.55;1.23;;;18.20;62.60;;;;;;4207356;28;20048;-61
2021/05/10 08:09:13;;;;;;;6.80;1.35;;;18.20;62.40;;;;;;4207679;28;20036;-59
2021/05/10 08:11:14;;;;;;;5.55;1.23;;;18.20;61.90;;;;;;4207533;28;20516;-60
2021/05/10 08:13:15;;;;;;;3.90;1.50;;;18.30;62.00;;;;;;4206949;28;20098;-60
2021/05/10 08:15:16;;;;;;;3.13;1.25;;;18.50;61.70;;;;;;4207266;28;20025;-60
2021/05/10 08:17:19;;;;;;;10.80;1.70;;;18.60;61.20;;;;;;4206983;28;20061;-59
2021/05/10 08:19:20;;;;;;;2.80;1.05;;;18.60;61.40;;;;;;4207277;28;20085;-61
2021/05/10 08:21:21;;;;;;;10.80;1.88;;;18.80;60.70;;;;;;4207485;28;20078;-63
2021/05/10 08:23:23;;;;;;;5.50;1.75;;;18.80;59.60;;;;;;4207130;28;20061;-57
2021/05/10 08:25:25;;;;;;;2.55;1.38;;;18.90;60.00;;;;;;4207303;28;20036;-60
2021/05/10 08:27:26;;;;;;;6.10;1.40;;;19.00;59.20;;;;;;4206830;28;20040;-60
2021/05/10 08:29:27;;;;;;;3.47;1.25;;;19.10;59.10;;;;;;4207376;28;20040;-60
2021/05/10 08:31:28;;;;;;;3.90;1.55;;;19.10;58.20;;;;;;4206651;28;20090;-60
2021/05/10 08:33:30;;;;;;;3.05;1.65;;;19.00;56.90;;;;;;4204246;28;20086;-60
2021/05/10 08:35:32;;;;;;;3.05;1.23;;;19.00;56.30;;;;;;4206317;28;20020;-61
2021/05/10 08:37:33;;;;;;;5.22;1.05;;;19.00;56.40;;;;;;4206929;28;20542;-59
2021/05/10 08:39:35;;;;;;;1.70;0.93;;;19.00;56.60;;;;;;4207099;28;20032;-57
2021/05/10 08:41:40;;;;;;;4.18;1.10;;;18.90;56.70;;;;;;4206359;28;20454;-60
2021/05/10 08:43:42;;;;;;;1.15;0.80;;;18.80;56.80;;;;;;4206475;28;20090;-60
2021/05/10 08:45:45;;;;;;;4.68;1.50;;;18.80;56.10;;;;;;4206639;28;20100;-59
2021/05/10 08:47:47;;;;;;;4.68;1.00;;;18.70;56.40;;;;;;4206621;28;20102;-60
2021/05/10 08:49:49;;;;;;;4.47;1.10;;;18.90;55.80;;;;;;4206473;28;20070;-59
2021/05/10 08:51:51;;;;;;;3.83;1.35;;;19.00;54.60;;;;;;4206562;28;20454;-60
2021/05/10 08:53:52;;;;;;;2.78;1.00;;;19.20;55.20;;;;;;4206261;28;20048;-59
2021/05/10 08:55:54;;;;;;;6.00;1.33;;;19.30;55.10;;;;;;4206765;28;20036;-60
2021/05/10 08:57:55;;;;;;;2.92;0.93;;;19.40;55.30;;;;;;4206636;28;20028;-60
2021/05/10 08:59:56;;;;;;;1.85;1.20;;;19.50;54.90;;;;;;4206916;28;20097;-60
2021/05/10 09:02:02;;;;;;;3.70;1.13;;;19.60;55.00;;;;;;4206366;28;20987;-60
2021/05/10 09:04:04;;;;;;;8.05;1.23;;;19.60;54.10;;;;;;4206569;28;20504;-60
2021/05/10 09:06:11;;;;;;;3.10;1.10;;;19.70;54.20;;;;;;4206515;28;20093;-59
2021/05/10 09:08:14;;;;;;;2.50;1.08;;;19.70;54.50;;;;;;4206583;28;20086;-60
2021/05/10 09:10:15;;;;;;;4.43;0.90;;;19.90;54.60;;;;;;4206148;28;20461;-59
2021/05/10 09:12:18;;;;;;;2.75;1.13;;;19.90;54.10;;;;;;4205640;28;20093;-58
2021/05/10 09:14:33;;;;;;;8.70;0.98;;;20.00;53.60;;;;;;4205806;28;20093;-60
2021/05/10 09:16:52;;;;;;;3.67;1.10;;;20.10;53.60;;;;;;4206036;28;20024;-66
2021/05/10 09:18:58;;;;;;;4.53;1.15;;;20.30;52.60;;;;;;4206042;28;20069;-61
2021/05/10 09:21:13;;;;;;;4.45;1.70;;;20.40;52.60;;;;;;4205679;28;20031;-60
2021/05/10 09:23:14;;;;;;;3.00;1.05;;;20.40;53.30;;;;;;4205858;28;20349;-60
2021/05/10 09:25:16;;;;;;;2.38;0.80;;;20.60;53.40;;;;;;4206309;28;20043;-59
2021/05/10 09:27:26;;;;;;;2.72;1.60;;;20.70;53.60;;;;;;4205960;28;20036;-60
2021/05/10 09:29:27;;;;;;;3.60;1.30;;;20.80;52.60;;;;;;4205109;28;20108;-60
2021/05/10 09:31:30;;;;;;;2.22;1.15;;;20.70;52.00;;;;;;4205925;28;20024;-60
2021/05/10 09:33:31;;;;;;;7.10;2.47;;;20.70;52.40;;;;;;4205988;28;20044;-60
2021/05/10 09:35:33;;;;;;;8.32;2.00;;;20.80;52.40;;;;;;4205335;28;20492;-61
2021/05/10 09:37:34;;;;;;;8.07;0.98;;;20.90;52.30;;;;;;4205194;28;20078;-61
2021/05/10 09:39:37;;;;;;;3.90;1.25;;;21.00;52.20;;;;;;4205465;28;20488;-60
2021/05/10 09:42:00;;;;;;;7.47;2.47;;;21.10;52.00;;;;;;4204506;28;20407;-60
2021/05/10 09:44:05;;;;;;;1.35;1.23;;;21.20;52.30;;;;;;4205946;28;20020;-61
2021/05/10 09:46:14;;;;;;;0.98;0.88;;;21.00;51.10;;;;;;4205911;28;20036;-60
2021/05/10 09:48:28;;;;;;;5.22;1.27;;;20.90;51.60;;;;;;4205278;28;20434;-61
2021/05/10 09:50:44;;;;;;;4.38;1.38;;;20.90;52.30;;;;;;4204821;28;20556;-61
2021/05/10 09:52:53;;;;;;;3.60;0.80;;;20.90;51.90;;;;;;4205324;28;20097;-61
2021/05/10 09:54:56;;;;;;;3.47;0.70;;;20.90;51.60;;;;;;4206118;28;20663;-61
2021/05/10 09:57:04;;;;;;;2.63;1.40;;;20.80;51.70;;;;;;4205340;28;20495;-64
2021/05/10 09:59:14;;;;;;;1.52;1.00;;;20.90;51.50;;;;;;4206133;28;20040;-61
2021/05/10 10:01:16;;;;;;;2.47;1.05;;;20.90;51.60;;;;;;4204078;28;20089;-59
2021/05/10 10:03:29;;;;;;;4.93;1.73;;;20.80;51.60;;;;;;4204795;28;20474;-59
2021/05/10 10:05:32;;;;;;;2.17;1.20;;;20.80;52.70;;;;;;4204741;28;20032;-61
2021/05/10 10:07:36;;;;;;;6.05;1.10;;;20.90;52.20;;;;;;4204971;28;20089;-60
2021/05/10 10:09:37;;;;;;;3.45;1.05;;;21.00;51.90;;;;;;4205165;28;20012;-60
2021/05/10 10:11:39;;;;;;;2.17;1.10;;;21.00;51.90;;;;;;4205502;28;20020;-59
2021/05/10 10:13:40;;;;;;;3.63;1.05;;;21.00;52.00;;;;;;4205538;28;20040;-59
2021/05/10 10:15:42;;;;;;;3.60;0.80;;;21.10;52.50;;;;;;4205249;28;20085;-58
2021/05/10 10:17:46;;;;;;;9.35;1.42;;;21.10;52.10;;;;;;4205193;28;20069;-61
2021/05/10 10:19:48;;;;;;;1.58;0.95;;;21.10;52.60;;;;;;4205129;28;20081;-61
2021/05/10 10:21:50;;;;;;;12.27;4.78;;;21.20;51.80;;;;;;4205460;28;20084;-61
2021/05/10 10:24:03;;;;;;;9.73;5.25;;;21.10;51.50;;;;;;4205024;28;20028;-60
2021/05/10 10:26:06;;;;;;;11.20;3.90;;;21.10;51.30;;;;;;4205160;28;20414;-60
2021/05/10 10:28:09;;;;;;;16.83;3.72;;;21.30;51.60;;;;;;4204770;28;20032;-60
2021/05/10 10:30:11;;;;;;;5.88;1.50;;;21.40;52.10;;;;;;4205329;28;20085;-60
2021/05/10 10:32:17;;;;;;;2.45;1.02;;;21.50;51.10;;;;;;4204819;28;20032;-60
2021/05/10 10:34:25;;;;;;;5.72;1.13;;;21.20;50.30;;;;;;4204934;28;20040;-59
2021/05/10 10:36:35;;;;;;;3.33;0.93;;;21.20;51.00;;;;;;4204557;28;20052;-60
2021/05/10 10:38:36;;;;;;;1.60;0.82;;;21.20;51.10;;;;;;4205086;28;20480;-60
2021/05/10 10:40:38;;;;;;;2.33;1.15;;;21.10;51.40;;;;;;4204956;28;20032;-61
2021/05/10 10:42:39;;;;;;;3.75;1.15;;;21.20;51.60;;;;;;4204167;28;20032;-59
2021/05/10 10:44:47;;;;;;;1.15;1.05;;;21.20;51.70;;;;;;4204882;28;20441;-60